sensor_id;sensor_type;location;lat;lon;timestamp;P1;durP1;ratioP1;P2;durP2;ratioP2
17826;SDS011;9038;48.208;16.308;2023-06-22T00:00:18;12.02;;;5.05;;
17826;SDS011;9038;48.208;16.308;2023-06-22T00:02:21;11.60;;;5.13;;
17826;SDS011;9038;48.208;16.308;2023-06-22T00:04:23;12.93;;;5.03;;
17826;SDS011;9038;48.208;16.308;2023-06-22T00:06:25;10.18;;;4.57;;
17826;SDS011;9038;48.208;16.308;2023-06-22T00:08:28;11.75;;;5.00;;
17826;SDS011;9038;48.208;16.308;2023-06-22T00:10:30;9.00;;;5.00;;
17826;SDS011;9038;48.208;16.308;2023-06-22T00:12:32;7.90;;;5.03;;
17826;SDS011;9038;48.208;16.308;2023-06-22T00:14:34;8.60;;;4.93;;
17826;SDS011;9038;48.208;16.308;2023-06-22T00:16:36;12.48;;;5.70;;
17826;SDS011;9038;48.208;16.308;2023-06-22T00:18:38;10.30;;;5.03;;
17826;SDS011;9038;48.208;16.308;2023-06-22T00:20:40;9.10;;;5.20;;
17826;SDS011;9038;48.208;16.308;2023-06-22T00:22:43;8.15;;;5.82;;
17826;SDS011;9038;48.208;16.308;2023-06-22T00:24:46;11.55;;;5.35;;
17826;SDS011;9038;48.208;16.308;2023-06-22T00:26:48;8.98;;;5.25;;
17826;SDS011;9038;48.208;16.308;2023-06-22T00:28:50;10.88;;;5.32;;
17826;SDS011;9038;48.208;16.308;2023-06-22T00:30:52;10.45;;;5.57;;
17826;SDS011;9038;48.208;16.308;2023-06-22T00:32:54;11.32;;;5.15;;
17826;SDS011;9038;48.208;16.308;2023-06-22T00:34:56;10.27;;;5.82;;
17826;SDS011;9038;48.208;16.308;2023-06-22T00:36:58;14.55;;;5.75;;
17826;SDS011;9038;48.208;16.308;2023-06-22T00:39:00;9.23;;;5.07;;
17826;SDS011;9038;48.208;16.308;2023-06-22T00:41:04;11.43;;;5.53;;
17826;SDS011;9038;48.208;16.308;2023-06-22T00:43:06;8.55;;;5.35;;
17826;SDS011;9038;48.208;16.308;2023-06-22T00:45:08;9.32;;;5.03;;
17826;SDS011;9038;48.208;16.308;2023-06-22T00:47:10;8.88;;;5.55;;
17826;SDS011;9038;48.208;16.308;2023-06-22T00:49:13;9.93;;;5.13;;
17826;SDS011;9038;48.208;16.308;2023-06-22T00:51:15;10.70;;;5.68;;
17826;SDS011;9038;48.208;16.308;2023-06-22T00:53:17;10.00;;;5.50;;
17826;SDS011;9038;48.208;16.308;2023-06-22T00:55:20;11.60;;;5.70;;
17826;SDS011;9038;48.208;16.308;2023-06-22T00:57:24;9.45;;;5.40;;
17826;SDS011;9038;48.208;16.308;2023-06-22T00:59:28;10.02;;;5.63;;
17826;SDS011;9038;48.208;16.308;2023-06-22T01:01:30;7.80;;;5.22;;
17826;SDS011;9038;48.208;16.308;2023-06-22T01:03:32;10.27;;;6.00;;
17826;SDS011;9038;48.208;16.308;2023-06-22T01:05:34;13.30;;;5.80;;
17826;SDS011;9038;48.208;16.308;2023-06-22T01:07:38;9.90;;;5.38;;
17826;SDS011;9038;48.208;16.308;2023-06-22T01:09:46;8.05;;;5.60;;
17826;SDS011;9038;48.208;16.308;2023-06-22T01:12:00;8.32;;;5.07;;
17826;SDS011;9038;48.208;16.308;2023-06-22T01:14:08;10.10;;;5.22;;
17826;SDS011;9038;48.208;16.308;2023-06-22T01:16:16;8.48;;;5.28;;
17826;SDS011;9038;48.208;16.308;2023-06-22T01:18:21;9.85;;;5.07;;
17826;SDS011;9038;48.208;16.308;2023-06-22T01:20:25;10.13;;;5.70;;
17826;SDS011;9038;48.208;16.308;2023-06-22T01:22:30;7.60;;;5.22;;
17826;SDS011;9038;48.208;16.308;2023-06-22T01:24:39;9.38;;;5.10;;
17826;SDS011;9038;48.208;16.308;2023-06-22T01:26:52;7.93;;;5.03;;
17826;SDS011;9038;48.208;16.308;2023-06-22T01:29:02;8.77;;;5.20;;
17826;SDS011;9038;48.208;16.308;2023-06-22T01:31:06;7.97;;;4.93;;
17826;SDS011;9038;48.208;16.308;2023-06-22T01:33:09;8.63;;;4.88;;
17826;SDS011;9038;48.208;16.308;2023-06-22T01:35:12;9.70;;;5.05;;
17826;SDS011;9038;48.208;16.308;2023-06-22T01:37:15;9.23;;;4.95;;
17826;SDS011;9038;48.208;16.308;2023-06-22T01:39:18;11.48;;;5.47;;
17826;SDS011;9038;48.208;16.308;2023-06-22T01:41:20;7.95;;;5.00;;
17826;SDS011;9038;48.208;16.308;2023-06-22T01:43:23;11.07;;;5.55;;
17826;SDS011;9038;48.208;16.308;2023-06-22T01:45:27;10.52;;;5.38;;
17826;SDS011;9038;48.208;16.308;2023-06-22T01:47:29;12.10;;;5.60;;
17826;SDS011;9038;48.208;16.308;2023-06-22T01:49:32;12.00;;;5.10;;
17826;SDS011;9038;48.208;16.308;2023-06-22T01:51:34;9.85;;;4.90;;
17826;SDS011;9038;48.208;16.308;2023-06-22T01:53:36;8.18;;;4.95;;
17826;SDS011;9038;48.208;16.308;2023-06-22T01:55:38;11.05;;;5.18;;
17826;SDS011;9038;48.208;16.308;2023-06-22T01:57:40;10.00;;;5.70;;
17826;SDS011;9038;48.208;16.308;2023-06-22T01:59:45;6.88;;;5.18;;
17826;SDS011;9038;48.208;16.308;2023-06-22T02:01:54;9.45;;;4.80;;
17826;SDS011;9038;48.208;16.308;2023-06-22T02:04:03;10.57;;;5.47;;
17826;SDS011;9038;48.208;16.308;2023-06-22T02:06:10;10.07;;;5.10;;
17826;SDS011;9038;48.208;16.308;2023-06-22T02:08:23;7.05;;;4.88;;
17826;SDS011;9038;48.208;16.308;2023-06-22T02:10:29;10.75;;;5.55;;
17826;SDS011;9038;48.208;16.308;2023-06-22T02:12:32;12.55;;;5.38;;
17826;SDS011;9038;48.208;16.308;2023-06-22T02:14:36;8.93;;;4.97;;
17826;SDS011;9038;48.208;16.308;2023-06-22T02:16:40;9.75;;;5.03;;
17826;SDS011;9038;48.208;16.308;2023-06-22T02:18:46;8.75;;;4.80;;
17826;SDS011;9038;48.208;16.308;2023-06-22T02:20:51;6.70;;;4.97;;
17826;SDS011;9038;48.208;16.308;2023-06-22T02:22:52;10.57;;;5.10;;
17826;SDS011;9038;48.208;16.308;2023-06-22T02:24:54;9.63;;;5.85;;
17826;SDS011;9038;48.208;16.308;2023-06-22T02:26:57;9.43;;;4.75;;
17826;SDS011;9038;48.208;16.308;2023-06-22T02:29:00;11.23;;;5.03;;
17826;SDS011;9038;48.208;16.308;2023-06-22T02:31:02;10.43;;;5.00;;
17826;SDS011;9038;48.208;16.308;2023-06-22T02:33:04;10.50;;;5.13;;
17826;SDS011;9038;48.208;16.308;2023-06-22T02:35:07;9.60;;;4.90;;
17826;SDS011;9038;48.208;16.308;2023-06-22T02:37:09;9.18;;;5.32;;
17826;SDS011;9038;48.208;16.308;2023-06-22T02:39:12;7.65;;;4.78;;
17826;SDS011;9038;48.208;16.308;2023-06-22T02:41:14;8.85;;;6.07;;
17826;SDS011;9038;48.208;16.308;2023-06-22T02:43:18;14.98;;;6.20;;
17826;SDS011;9038;48.208;16.308;2023-06-22T02:45:20;9.25;;;5.30;;
17826;SDS011;9038;48.208;16.308;2023-06-22T02:47:22;10.75;;;5.68;;
17826;SDS011;9038;48.208;16.308;2023-06-22T02:49:24;9.80;;;5.20;;
17826;SDS011;9038;48.208;16.308;2023-06-22T02:51:27;8.40;;;4.97;;
17826;SDS011;9038;48.208;16.308;2023-06-22T02:53:29;7.43;;;4.78;;
17826;SDS011;9038;48.208;16.308;2023-06-22T02:55:31;9.70;;;4.50;;
17826;SDS011;9038;48.208;16.308;2023-06-22T02:57:33;12.40;;;5.25;;
17826;SDS011;9038;48.208;16.308;2023-06-22T02:59:36;9.50;;;5.18;;
17826;SDS011;9038;48.208;16.308;2023-06-22T03:01:40;10.30;;;5.38;;
17826;SDS011;9038;48.208;16.308;2023-06-22T03:03:42;7.40;;;5.03;;
17826;SDS011;9038;48.208;16.308;2023-06-22T03:05:44;9.70;;;5.03;;
17826;SDS011;9038;48.208;16.308;2023-06-22T03:07:47;10.30;;;5.57;;
17826;SDS011;9038;48.208;16.308;2023-06-22T03:09:52;8.38;;;5.70;;
17826;SDS011;9038;48.208;16.308;2023-06-22T03:11:54;9.18;;;5.72;;
17826;SDS011;9038;48.208;16.308;2023-06-22T03:13:56;10.07;;;5.10;;
17826;SDS011;9038;48.208;16.308;2023-06-22T03:15:58;8.38;;;5.60;;
17826;SDS011;9038;48.208;16.308;2023-06-22T03:18:00;8.65;;;5.60;;
17826;SDS011;9038;48.208;16.308;2023-06-22T03:20:02;10.88;;;5.25;;
17826;SDS011;9038;48.208;16.308;2023-06-22T03:22:08;8.88;;;5.63;;
17826;SDS011;9038;48.208;16.308;2023-06-22T03:24:12;13.80;;;5.63;;
17826;SDS011;9038;48.208;16.308;2023-06-22T03:26:16;9.88;;;5.45;;
17826;SDS011;9038;48.208;16.308;2023-06-22T03:28:18;9.43;;;5.03;;
17826;SDS011;9038;48.208;16.308;2023-06-22T03:30:20;13.00;;;5.75;;
17826;SDS011;9038;48.208;16.308;2023-06-22T03:32:21;11.85;;;5.88;;
17826;SDS011;9038;48.208;16.308;2023-06-22T03:34:24;11.35;;;6.07;;
17826;SDS011;9038;48.208;16.308;2023-06-22T03:36:26;12.10;;;5.65;;
17826;SDS011;9038;48.208;16.308;2023-06-22T03:38:28;9.90;;;4.90;;
17826;SDS011;9038;48.208;16.308;2023-06-22T03:40:31;11.73;;;5.50;;
17826;SDS011;9038;48.208;16.308;2023-06-22T03:42:33;7.10;;;4.70;;
17826;SDS011;9038;48.208;16.308;2023-06-22T03:44:35;11.95;;;5.57;;
17826;SDS011;9038;48.208;16.308;2023-06-22T03:46:37;12.20;;;5.80;;
17826;SDS011;9038;48.208;16.308;2023-06-22T03:48:39;9.45;;;5.18;;
17826;SDS011;9038;48.208;16.308;2023-06-22T03:50:41;12.15;;;5.68;;
17826;SDS011;9038;48.208;16.308;2023-06-22T03:52:44;11.32;;;6.30;;
17826;SDS011;9038;48.208;16.308;2023-06-22T03:54:45;7.80;;;5.55;;
17826;SDS011;9038;48.208;16.308;2023-06-22T03:56:49;12.38;;;5.70;;
17826;SDS011;9038;48.208;16.308;2023-06-22T03:58:51;11.73;;;6.25;;
17826;SDS011;9038;48.208;16.308;2023-06-22T04:00:53;11.07;;;6.20;;
17826;SDS011;9038;48.208;16.308;2023-06-22T04:02:55;14.60;;;5.35;;
17826;SDS011;9038;48.208;16.308;2023-06-22T04:04:57;8.23;;;5.63;;
17826;SDS011;9038;48.208;16.308;2023-06-22T04:06:59;9.55;;;5.60;;
17826;SDS011;9038;48.208;16.308;2023-06-22T04:09:01;12.35;;;7.20;;
17826;SDS011;9038;48.208;16.308;2023-06-22T04:11:03;12.10;;;5.72;;
17826;SDS011;9038;48.208;16.308;2023-06-22T04:13:06;10.18;;;5.53;;
17826;SDS011;9038;48.208;16.308;2023-06-22T04:15:08;10.93;;;5.53;;
17826;SDS011;9038;48.208;16.308;2023-06-22T04:17:12;10.75;;;7.00;;
17826;SDS011;9038;48.208;16.308;2023-06-22T04:19:15;10.55;;;5.80;;
17826;SDS011;9038;48.208;16.308;2023-06-22T04:21:17;12.95;;;5.53;;
17826;SDS011;9038;48.208;16.308;2023-06-22T04:23:19;12.55;;;5.72;;
17826;SDS011;9038;48.208;16.308;2023-06-22T04:25:21;10.02;;;5.88;;
17826;SDS011;9038;48.208;16.308;2023-06-22T04:27:23;10.75;;;5.95;;
17826;SDS011;9038;48.208;16.308;2023-06-22T04:29:27;11.05;;;6.18;;
17826;SDS011;9038;48.208;16.308;2023-06-22T04:31:30;10.75;;;5.93;;
17826;SDS011;9038;48.208;16.308;2023-06-22T04:33:36;9.45;;;5.75;;
17826;SDS011;9038;48.208;16.308;2023-06-22T04:35:40;12.63;;;6.25;;
17826;SDS011;9038;48.208;16.308;2023-06-22T04:37:43;9.27;;;5.43;;
17826;SDS011;9038;48.208;16.308;2023-06-22T04:39:48;9.65;;;5.47;;
17826;SDS011;9038;48.208;16.308;2023-06-22T04:41:50;8.50;;;5.70;;
17826;SDS011;9038;48.208;16.308;2023-06-22T04:43:52;9.23;;;5.45;;
17826;SDS011;9038;48.208;16.308;2023-06-22T04:46:01;11.85;;;5.93;;
17826;SDS011;9038;48.208;16.308;2023-06-22T04:48:04;10.73;;;5.00;;
17826;SDS011;9038;48.208;16.308;2023-06-22T04:50:07;11.80;;;5.55;;
17826;SDS011;9038;48.208;16.308;2023-06-22T04:52:09;10.13;;;5.43;;
17826;SDS011;9038;48.208;16.308;2023-06-22T04:54:12;14.07;;;6.00;;
17826;SDS011;9038;48.208;16.308;2023-06-22T04:56:14;10.57;;;5.30;;
17826;SDS011;9038;48.208;16.308;2023-06-22T04:58:17;9.13;;;5.22;;
17826;SDS011;9038;48.208;16.308;2023-06-22T05:00:20;10.20;;;5.47;;
17826;SDS011;9038;48.208;16.308;2023-06-22T05:02:24;11.15;;;5.70;;
17826;SDS011;9038;48.208;16.308;2023-06-22T05:04:28;9.43;;;5.50;;
17826;SDS011;9038;48.208;16.308;2023-06-22T05:06:31;11.48;;;5.93;;
17826;SDS011;9038;48.208;16.308;2023-06-22T05:08:33;11.27;;;5.45;;
17826;SDS011;9038;48.208;16.308;2023-06-22T05:10:35;12.40;;;6.28;;
17826;SDS011;9038;48.208;16.308;2023-06-22T05:12:37;13.25;;;6.85;;
17826;SDS011;9038;48.208;16.308;2023-06-22T05:14:39;13.25;;;6.18;;
17826;SDS011;9038;48.208;16.308;2023-06-22T05:16:41;12.85;;;6.95;;
17826;SDS011;9038;48.208;16.308;2023-06-22T05:18:45;15.80;;;7.85;;
17826;SDS011;9038;48.208;16.308;2023-06-22T05:20:47;15.02;;;6.88;;
17826;SDS011;9038;48.208;16.308;2023-06-22T05:22:49;11.68;;;6.53;;
17826;SDS011;9038;48.208;16.308;2023-06-22T05:24:50;15.00;;;6.53;;
17826;SDS011;9038;48.208;16.308;2023-06-22T05:26:52;12.27;;;6.30;;
17826;SDS011;9038;48.208;16.308;2023-06-22T05:28:55;11.82;;;6.30;;
17826;SDS011;9038;48.208;16.308;2023-06-22T05:30:57;11.40;;;5.75;;
17826;SDS011;9038;48.208;16.308;2023-06-22T05:32:59;12.80;;;5.90;;
17826;SDS011;9038;48.208;16.308;2023-06-22T05:35:09;7.90;;;5.30;;
17826;SDS011;9038;48.208;16.308;2023-06-22T05:37:11;10.50;;;5.20;;
17826;SDS011;9038;48.208;16.308;2023-06-22T05:39:14;8.95;;;4.50;;
17826;SDS011;9038;48.208;16.308;2023-06-22T05:41:16;7.90;;;4.25;;
17826;SDS011;9038;48.208;16.308;2023-06-22T05:43:17;7.55;;;4.35;;
17826;SDS011;9038;48.208;16.308;2023-06-22T05:45:19;7.75;;;4.25;;
17826;SDS011;9038;48.208;16.308;2023-06-22T05:47:21;9.40;;;4.32;;
17826;SDS011;9038;48.208;16.308;2023-06-22T05:49:23;6.57;;;4.10;;
17826;SDS011;9038;48.208;16.308;2023-06-22T05:51:31;10.82;;;4.25;;
17826;SDS011;9038;48.208;16.308;2023-06-22T05:53:32;8.30;;;4.82;;
17826;SDS011;9038;48.208;16.308;2023-06-22T05:55:34;7.85;;;4.20;;
17826;SDS011;9038;48.208;16.308;2023-06-22T05:57:36;7.72;;;4.05;;
17826;SDS011;9038;48.208;16.308;2023-06-22T05:59:38;6.50;;;4.97;;
17826;SDS011;9038;48.208;16.308;2023-06-22T06:01:40;11.10;;;4.57;;
17826;SDS011;9038;48.208;16.308;2023-06-22T06:03:42;8.45;;;4.13;;
17826;SDS011;9038;48.208;16.308;2023-06-22T06:05:44;9.52;;;4.35;;
17826;SDS011;9038;48.208;16.308;2023-06-22T06:07:47;11.10;;;4.53;;
17826;SDS011;9038;48.208;16.308;2023-06-22T06:09:49;8.93;;;4.53;;
17826;SDS011;9038;48.208;16.308;2023-06-22T06:11:51;9.27;;;3.95;;
17826;SDS011;9038;48.208;16.308;2023-06-22T06:13:53;8.18;;;4.10;;
17826;SDS011;9038;48.208;16.308;2023-06-22T06:15:55;10.50;;;4.03;;
17826;SDS011;9038;48.208;16.308;2023-06-22T06:17:59;9.43;;;4.43;;
17826;SDS011;9038;48.208;16.308;2023-06-22T06:20:02;7.43;;;4.47;;
17826;SDS011;9038;48.208;16.308;2023-06-22T06:22:05;12.52;;;4.45;;
17826;SDS011;9038;48.208;16.308;2023-06-22T06:24:09;9.85;;;4.45;;
17826;SDS011;9038;48.208;16.308;2023-06-22T06:26:11;11.20;;;4.93;;
17826;SDS011;9038;48.208;16.308;2023-06-22T06:28:13;11.68;;;4.97;;
17826;SDS011;9038;48.208;16.308;2023-06-22T06:30:15;10.05;;;4.43;;
17826;SDS011;9038;48.208;16.308;2023-06-22T06:32:17;10.45;;;4.13;;
17826;SDS011;9038;48.208;16.308;2023-06-22T06:34:19;9.70;;;4.85;;
17826;SDS011;9038;48.208;16.308;2023-06-22T06:36:21;9.02;;;4.75;;
17826;SDS011;9038;48.208;16.308;2023-06-22T06:38:23;10.70;;;5.55;;
17826;SDS011;9038;48.208;16.308;2023-06-22T06:40:26;13.23;;;5.97;;
17826;SDS011;9038;48.208;16.308;2023-06-22T06:42:28;9.93;;;5.38;;
17826;SDS011;9038;48.208;16.308;2023-06-22T06:44:30;12.20;;;5.50;;
17826;SDS011;9038;48.208;16.308;2023-06-22T06:46:32;11.02;;;5.63;;
17826;SDS011;9038;48.208;16.308;2023-06-22T06:48:34;10.98;;;5.70;;
17826;SDS011;9038;48.208;16.308;2023-06-22T06:50:36;14.13;;;6.57;;
17826;SDS011;9038;48.208;16.308;2023-06-22T06:52:38;15.20;;;6.45;;
17826;SDS011;9038;48.208;16.308;2023-06-22T06:54:40;11.43;;;6.43;;
17826;SDS011;9038;48.208;16.308;2023-06-22T06:56:44;13.50;;;6.32;;
17826;SDS011;9038;48.208;16.308;2023-06-22T06:58:49;13.13;;;7.43;;
17826;SDS011;9038;48.208;16.308;2023-06-22T07:00:52;13.82;;;8.27;;
17826;SDS011;9038;48.208;16.308;2023-06-22T07:02:54;15.68;;;9.20;;
17826;SDS011;9038;48.208;16.308;2023-06-22T07:04:55;18.58;;;9.45;;
17826;SDS011;9038;48.208;16.308;2023-06-22T07:06:58;14.18;;;7.88;;
17826;SDS011;9038;48.208;16.308;2023-06-22T07:09:02;19.20;;;9.70;;
17826;SDS011;9038;48.208;16.308;2023-06-22T07:11:04;18.42;;;9.50;;
17826;SDS011;9038;48.208;16.308;2023-06-22T07:13:07;14.25;;;9.18;;
17826;SDS011;9038;48.208;16.308;2023-06-22T07:15:09;13.10;;;10.23;;
17826;SDS011;9038;48.208;16.308;2023-06-22T07:17:12;17.55;;;11.85;;
17826;SDS011;9038;48.208;16.308;2023-06-22T07:19:14;17.27;;;11.32;;
17826;SDS011;9038;48.208;16.308;2023-06-22T07:21:16;16.17;;;10.40;;
17826;SDS011;9038;48.208;16.308;2023-06-22T07:23:18;13.75;;;9.52;;
17826;SDS011;9038;48.208;16.308;2023-06-22T07:25:20;15.52;;;11.70;;
17826;SDS011;9038;48.208;16.308;2023-06-22T07:27:22;15.60;;;10.57;;
17826;SDS011;9038;48.208;16.308;2023-06-22T07:29:25;15.43;;;9.75;;
17826;SDS011;9038;48.208;16.308;2023-06-22T07:31:27;16.70;;;10.73;;
17826;SDS011;9038;48.208;16.308;2023-06-22T07:33:29;18.83;;;10.48;;
17826;SDS011;9038;48.208;16.308;2023-06-22T07:35:31;18.30;;;10.38;;
17826;SDS011;9038;48.208;16.308;2023-06-22T07:37:33;13.20;;;8.95;;
17826;SDS011;9038;48.208;16.308;2023-06-22T07:39:35;16.15;;;10.05;;
17826;SDS011;9038;48.208;16.308;2023-06-22T07:41:38;19.10;;;10.13;;
17826;SDS011;9038;48.208;16.308;2023-06-22T07:43:40;18.73;;;9.75;;
17826;SDS011;9038;48.208;16.308;2023-06-22T07:45:49;20.33;;;10.30;;
17826;SDS011;9038;48.208;16.308;2023-06-22T07:47:53;17.83;;;9.80;;
17826;SDS011;9038;48.208;16.308;2023-06-22T07:49:55;14.98;;;9.48;;
17826;SDS011;9038;48.208;16.308;2023-06-22T07:52:01;19.00;;;10.20;;
17826;SDS011;9038;48.208;16.308;2023-06-22T07:54:03;14.90;;;9.60;;
17826;SDS011;9038;48.208;16.308;2023-06-22T07:56:05;13.80;;;9.07;;
17826;SDS011;9038;48.208;16.308;2023-06-22T07:58:07;16.30;;;10.10;;
17826;SDS011;9038;48.208;16.308;2023-06-22T08:00:09;16.00;;;10.00;;
17826;SDS011;9038;48.208;16.308;2023-06-22T08:02:16;12.70;;;9.40;;
17826;SDS011;9038;48.208;16.308;2023-06-22T08:04:18;14.70;;;9.90;;
17826;SDS011;9038;48.208;16.308;2023-06-22T08:06:20;13.40;;;9.55;;
17826;SDS011;9038;48.208;16.308;2023-06-22T08:08:22;11.70;;;8.05;;
17826;SDS011;9038;48.208;16.308;2023-06-22T08:10:23;12.95;;;9.52;;
17826;SDS011;9038;48.208;16.308;2023-06-22T08:12:26;13.65;;;9.15;;
17826;SDS011;9038;48.208;16.308;2023-06-22T08:14:29;17.60;;;9.77;;
17826;SDS011;9038;48.208;16.308;2023-06-22T08:16:31;13.20;;;9.45;;
17826;SDS011;9038;48.208;16.308;2023-06-22T08:18:34;17.65;;;10.40;;
17826;SDS011;9038;48.208;16.308;2023-06-22T08:20:36;18.95;;;9.95;;
17826;SDS011;9038;48.208;16.308;2023-06-22T08:22:38;11.35;;;9.43;;
17826;SDS011;9038;48.208;16.308;2023-06-22T08:24:40;12.57;;;8.52;;
17826;SDS011;9038;48.208;16.308;2023-06-22T08:26:42;14.02;;;8.80;;
17826;SDS011;9038;48.208;16.308;2023-06-22T08:28:43;12.55;;;8.15;;
17826;SDS011;9038;48.208;16.308;2023-06-22T08:30:45;11.07;;;9.10;;
17826;SDS011;9038;48.208;16.308;2023-06-22T08:32:47;12.40;;;9.23;;
17826;SDS011;9038;48.208;16.308;2023-06-22T08:34:51;18.98;;;9.45;;
17826;SDS011;9038;48.208;16.308;2023-06-22T08:36:53;11.32;;;7.80;;
17826;SDS011;9038;48.208;16.308;2023-06-22T08:38:55;13.32;;;8.10;;
17826;SDS011;9038;48.208;16.308;2023-06-22T08:41:03;11.73;;;9.07;;
17826;SDS011;9038;48.208;16.308;2023-06-22T08:43:05;13.65;;;8.48;;
17826;SDS011;9038;48.208;16.308;2023-06-22T08:45:07;12.88;;;7.93;;
17826;SDS011;9038;48.208;16.308;2023-06-22T08:47:10;10.95;;;8.30;;
17826;SDS011;9038;48.208;16.308;2023-06-22T08:49:12;14.35;;;8.75;;
17826;SDS011;9038;48.208;16.308;2023-06-22T08:51:15;13.38;;;8.60;;
17826;SDS011;9038;48.208;16.308;2023-06-22T08:53:17;10.75;;;7.85;;
17826;SDS011;9038;48.208;16.308;2023-06-22T08:55:19;12.90;;;7.90;;
17826;SDS011;9038;48.208;16.308;2023-06-22T08:57:21;9.93;;;8.13;;
17826;SDS011;9038;48.208;16.308;2023-06-22T08:59:23;11.27;;;8.23;;
17826;SDS011;9038;48.208;16.308;2023-06-22T09:01:25;13.63;;;8.85;;
17826;SDS011;9038;48.208;16.308;2023-06-22T09:03:27;11.13;;;8.75;;
17826;SDS011;9038;48.208;16.308;2023-06-22T09:05:28;9.30;;;8.35;;
17826;SDS011;9038;48.208;16.308;2023-06-22T09:07:32;11.98;;;8.48;;
17826;SDS011;9038;48.208;16.308;2023-06-22T09:09:34;12.15;;;8.88;;
17826;SDS011;9038;48.208;16.308;2023-06-22T09:11:36;11.80;;;9.18;;
17826;SDS011;9038;48.208;16.308;2023-06-22T09:13:38;12.48;;;8.88;;
17826;SDS011;9038;48.208;16.308;2023-06-22T09:15:40;14.38;;;8.60;;
17826;SDS011;9038;48.208;16.308;2023-06-22T09:17:42;12.70;;;8.90;;
17826;SDS011;9038;48.208;16.308;2023-06-22T09:19:46;12.85;;;8.40;;
17826;SDS011;9038;48.208;16.308;2023-06-22T09:21:48;14.80;;;8.98;;
17826;SDS011;9038;48.208;16.308;2023-06-22T09:23:52;13.50;;;8.45;;
17826;SDS011;9038;48.208;16.308;2023-06-22T09:25:54;14.43;;;8.40;;
17826;SDS011;9038;48.208;16.308;2023-06-22T09:27:56;12.90;;;8.63;;
17826;SDS011;9038;48.208;16.308;2023-06-22T09:29:58;12.45;;;8.05;;
17826;SDS011;9038;48.208;16.308;2023-06-22T09:32:00;9.68;;;7.85;;
17826;SDS011;9038;48.208;16.308;2023-06-22T09:34:02;10.73;;;8.13;;
17826;SDS011;9038;48.208;16.308;2023-06-22T09:36:05;10.27;;;8.13;;
17826;SDS011;9038;48.208;16.308;2023-06-22T09:38:07;14.23;;;8.13;;
17826;SDS011;9038;48.208;16.308;2023-06-22T09:40:11;12.63;;;8.23;;
17826;SDS011;9038;48.208;16.308;2023-06-22T09:42:15;10.57;;;8.98;;
17826;SDS011;9038;48.208;16.308;2023-06-22T09:44:17;11.10;;;8.43;;
17826;SDS011;9038;48.208;16.308;2023-06-22T09:46:19;11.90;;;8.18;;
17826;SDS011;9038;48.208;16.308;2023-06-22T09:48:25;15.77;;;8.55;;
17826;SDS011;9038;48.208;16.308;2023-06-22T09:50:27;12.50;;;7.75;;
17826;SDS011;9038;48.208;16.308;2023-06-22T09:52:28;10.30;;;8.23;;
17826;SDS011;9038;48.208;16.308;2023-06-22T09:54:30;10.65;;;8.30;;
17826;SDS011;9038;48.208;16.308;2023-06-22T09:56:34;9.82;;;7.97;;
17826;SDS011;9038;48.208;16.308;2023-06-22T09:58:37;10.90;;;8.18;;
17826;SDS011;9038;48.208;16.308;2023-06-22T10:00:39;13.23;;;8.38;;
17826;SDS011;9038;48.208;16.308;2023-06-22T10:02:42;9.98;;;8.55;;
17826;SDS011;9038;48.208;16.308;2023-06-22T10:04:44;12.00;;;7.57;;
17826;SDS011;9038;48.208;16.308;2023-06-22T10:06:46;13.45;;;7.82;;
17826;SDS011;9038;48.208;16.308;2023-06-22T10:08:48;14.07;;;8.05;;
17826;SDS011;9038;48.208;16.308;2023-06-22T10:10:51;13.98;;;7.82;;
17826;SDS011;9038;48.208;16.308;2023-06-22T10:12:56;8.18;;;7.47;;
17826;SDS011;9038;48.208;16.308;2023-06-22T10:14:59;11.82;;;7.82;;
17826;SDS011;9038;48.208;16.308;2023-06-22T10:17:02;10.20;;;8.20;;
17826;SDS011;9038;48.208;16.308;2023-06-22T10:19:04;13.90;;;7.95;;
17826;SDS011;9038;48.208;16.308;2023-06-22T10:21:06;10.88;;;8.35;;
17826;SDS011;9038;48.208;16.308;2023-06-22T10:23:07;10.55;;;7.70;;
17826;SDS011;9038;48.208;16.308;2023-06-22T10:25:10;8.02;;;7.15;;
17826;SDS011;9038;48.208;16.308;2023-06-22T10:27:19;10.68;;;7.25;;
17826;SDS011;9038;48.208;16.308;2023-06-22T10:29:22;13.45;;;7.70;;
17826;SDS011;9038;48.208;16.308;2023-06-22T10:31:24;10.60;;;7.50;;
17826;SDS011;9038;48.208;16.308;2023-06-22T10:33:27;12.45;;;7.30;;
17826;SDS011;9038;48.208;16.308;2023-06-22T10:35:29;9.40;;;7.20;;
17826;SDS011;9038;48.208;16.308;2023-06-22T10:37:31;10.07;;;6.40;;
17826;SDS011;9038;48.208;16.308;2023-06-22T10:39:33;7.85;;;6.18;;
17826;SDS011;9038;48.208;16.308;2023-06-22T10:41:35;7.45;;;6.03;;
17826;SDS011;9038;48.208;16.308;2023-06-22T10:43:37;13.43;;;6.53;;
17826;SDS011;9038;48.208;16.308;2023-06-22T10:45:40;12.60;;;6.00;;
17826;SDS011;9038;48.208;16.308;2023-06-22T10:47:42;9.85;;;5.50;;
17826;SDS011;9038;48.208;16.308;2023-06-22T10:49:44;8.18;;;5.93;;
17826;SDS011;9038;48.208;16.308;2023-06-22T10:51:46;9.40;;;4.72;;
17826;SDS011;9038;48.208;16.308;2023-06-22T10:53:48;7.97;;;4.85;;
17826;SDS011;9038;48.208;16.308;2023-06-22T10:55:51;7.93;;;4.38;;
17826;SDS011;9038;48.208;16.308;2023-06-22T10:57:54;6.95;;;4.60;;
17826;SDS011;9038;48.208;16.308;2023-06-22T10:59:55;8.07;;;4.47;;
17826;SDS011;9038;48.208;16.308;2023-06-22T11:01:59;5.78;;;4.20;;
17826;SDS011;9038;48.208;16.308;2023-06-22T11:04:01;9.07;;;4.57;;
17826;SDS011;9038;48.208;16.308;2023-06-22T11:06:03;8.82;;;4.35;;
17826;SDS011;9038;48.208;16.308;2023-06-22T11:08:05;7.40;;;4.40;;
17826;SDS011;9038;48.208;16.308;2023-06-22T11:10:07;7.68;;;4.25;;
17826;SDS011;9038;48.208;16.308;2023-06-22T11:12:09;7.20;;;3.92;;
17826;SDS011;9038;48.208;16.308;2023-06-22T11:14:11;7.78;;;4.57;;
17826;SDS011;9038;48.208;16.308;2023-06-22T11:16:13;6.15;;;4.10;;
17826;SDS011;9038;48.208;16.308;2023-06-22T11:18:17;11.25;;;6.10;;
17826;SDS011;9038;48.208;16.308;2023-06-22T11:20:19;7.70;;;3.83;;
17826;SDS011;9038;48.208;16.308;2023-06-22T11:22:21;5.68;;;4.97;;
17826;SDS011;9038;48.208;16.308;2023-06-22T11:24:23;8.05;;;4.95;;
17826;SDS011;9038;48.208;16.308;2023-06-22T11:26:25;9.07;;;5.18;;
17826;SDS011;9038;48.208;16.308;2023-06-22T11:28:35;7.10;;;5.43;;
17826;SDS011;9038;48.208;16.308;2023-06-22T11:30:37;8.40;;;5.70;;
17826;SDS011;9038;48.208;16.308;2023-06-22T11:32:39;9.52;;;5.90;;
17826;SDS011;9038;48.208;16.308;2023-06-22T11:34:42;12.60;;;5.93;;
17826;SDS011;9038;48.208;16.308;2023-06-22T11:36:44;11.60;;;6.28;;
17826;SDS011;9038;48.208;16.308;2023-06-22T11:38:48;11.38;;;6.63;;
17826;SDS011;9038;48.208;16.308;2023-06-22T11:40:50;9.75;;;6.15;;
17826;SDS011;9038;48.208;16.308;2023-06-22T11:42:51;9.45;;;6.68;;
17826;SDS011;9038;48.208;16.308;2023-06-22T11:44:53;8.48;;;6.10;;
17826;SDS011;9038;48.208;16.308;2023-06-22T11:46:55;12.13;;;5.97;;
17826;SDS011;9038;48.208;16.308;2023-06-22T11:48:57;9.55;;;5.53;;
17826;SDS011;9038;48.208;16.308;2023-06-22T11:51:07;10.70;;;4.95;;
17826;SDS011;9038;48.208;16.308;2023-06-22T11:53:16;8.05;;;5.10;;
17826;SDS011;9038;48.208;16.308;2023-06-22T11:55:18;8.63;;;5.90;;
17826;SDS011;9038;48.208;16.308;2023-06-22T11:57:20;7.72;;;4.95;;
17826;SDS011;9038;48.208;16.308;2023-06-22T11:59:22;10.48;;;5.97;;
17826;SDS011;9038;48.208;16.308;2023-06-22T12:01:24;9.20;;;4.85;;
17826;SDS011;9038;48.208;16.308;2023-06-22T12:03:26;11.10;;;5.35;;
17826;SDS011;9038;48.208;16.308;2023-06-22T12:05:29;9.60;;;5.45;;
17826;SDS011;9038;48.208;16.308;2023-06-22T12:07:32;9.70;;;4.88;;
17826;SDS011;9038;48.208;16.308;2023-06-22T12:09:34;7.35;;;4.13;;
17826;SDS011;9038;48.208;16.308;2023-06-22T12:11:36;7.50;;;4.25;;